Chelmsley Wood, United Kingdom
Current Conditions -  °F | °C
As of 8:20 PM on Sunday 23 Nov 2014 (Local Time) from EGBB Reporting Station
Clear Clear  
Wind Chill:   Ceiling: Unl
Heat Index:   Visibility: 6mi
Dew Point:   Wind: 6mph
Humidity: 87%   Direction: 280°W
Pressure: 30.12"   Gusts: NA
Location:  52.48°N, 1.74°W
Report Text: EGBB 232020Z 28005KT CAVOK 05/03 Q1020
Loading
Personal Weather Stations






























Interactive Weather Map New forecast layout! Learn more

10-Day Weather Forecast

Advertisements
Track Severe Weather on mobile